createdAt,value
2019-04-19T00:00:10.136Z,1026.72
2019-04-19T00:01:33.094Z,1026.67
2019-04-19T00:03:20.031Z,1026.71
2019-04-19T00:04:52.777Z,1026.74
2019-04-19T00:06:18.885Z,1026.72
2019-04-19T00:07:52.480Z,1026.75
2019-04-19T00:10:43.350Z,1026.71
2019-04-19T00:12:50.271Z,1026.71
2019-04-19T00:14:14.914Z,1026.72
2019-04-19T00:15:26.581Z,1026.76
2019-04-19T00:16:40.601Z,1026.72
2019-04-19T00:17:59.555Z,1026.71
2019-04-19T00:19:52.139Z,1026.73
2019-04-19T00:22:58.047Z,1026.67
2019-04-19T00:24:49.784Z,1026.74
2019-04-19T00:26:01.927Z,1026.71
2019-04-19T00:27:13.962Z,1026.76
2019-04-19T00:28:51.103Z,1026.68
2019-04-19T00:30:53.684Z,1026.72
2019-04-19T00:33:25.904Z,1026.7
2019-04-19T00:34:59.615Z,1026.7
2019-04-19T00:36:13.525Z,1026.69
2019-04-19T00:37:29.018Z,1026.68
2019-04-19T00:38:50.460Z,1026.71
2019-04-19T00:41:45.040Z,1026.69
2019-04-19T00:44:56.533Z,1026.74
2019-04-19T00:47:47.114Z,1026.8
2019-04-19T00:50:23.360Z,1026.77
2019-04-19T00:52:56.737Z,1026.79
2019-04-19T00:55:13.527Z,1026.83
2019-04-19T00:57:24.165Z,1026.78
2019-04-19T00:59:17.730Z,1026.81
2019-04-19T01:00:49.255Z,1026.8
2019-04-19T01:02:34.214Z,1026.82
2019-04-19T01:04:11.713Z,1026.89
2019-04-19T01:05:46.959Z,1026.81
2019-04-19T01:07:34.919Z,1026.84
2019-04-19T01:08:59.152Z,1026.87
2019-04-19T01:11:31.339Z,1026.87
2019-04-19T01:14:13.680Z,1026.87
2019-04-19T01:16:31.595Z,1026.87
2019-04-19T01:19:06.927Z,1026.89
2019-04-19T01:20:28.953Z,1026.9
2019-04-19T01:21:40.732Z,1026.86
2019-04-19T01:22:58.459Z,1026.89
2019-04-19T01:24:30.548Z,1026.9
2019-04-19T01:26:00.621Z,1026.94
2019-04-19T01:27:25.983Z,1026.93
2019-04-19T01:28:53.481Z,1026.94
2019-04-19T01:30:30.294Z,1026.95
2019-04-19T01:31:58.012Z,1026.97
2019-04-19T01:33:31.072Z,1026.95
2019-04-19T01:35:00.793Z,1027.01
2019-04-19T01:36:32.050Z,1026.98
2019-04-19T01:38:00.594Z,1026.98
2019-04-19T01:39:31.989Z,1027
2019-04-19T01:42:31.100Z,1027.08
2019-04-19T01:45:17.025Z,1027.08
2019-04-19T01:48:05.906Z,1027.04
2019-04-19T01:50:43.794Z,1027.05
2019-04-19T01:54:06.508Z,1027.09
2019-04-19T01:56:21.964Z,1027.08
2019-04-19T01:57:34.404Z,1027.09
2019-04-19T01:58:50.846Z,1027.13
2019-04-19T02:00:13.016Z,1027.1
2019-04-19T02:02:01.394Z,1027.17
2019-04-19T02:03:36.628Z,1027.14
2019-04-19T02:05:05.051Z,1027.15
2019-04-19T02:06:33.578Z,1027.15
2019-04-19T02:08:01.652Z,1027.2
2019-04-19T02:09:31.191Z,1027.19
2019-04-19T02:12:00.323Z,1027.24
2019-04-19T02:14:19.067Z,1027.18
2019-04-19T02:16:16.780Z,1027.23
2019-04-19T02:17:41.840Z,1027.25
2019-04-19T02:19:05.595Z,1027.24
2019-04-19T02:20:41.233Z,1027.22
2019-04-19T02:22:07.107Z,1027.26
2019-04-19T02:23:49.346Z,1027.23
2019-04-19T02:25:15.885Z,1027.25
2019-04-19T02:26:44.599Z,1027.25
2019-04-19T02:28:24.351Z,1027.28
2019-04-19T02:29:52.614Z,1027.31
2019-04-19T02:32:30.774Z,1027.3
2019-04-19T02:36:35.271Z,1027.28
2019-04-19T02:44:35.549Z,1027.32
2019-04-19T02:49:01.194Z,1027.32
2019-04-19T02:53:22.187Z,1027.33
2019-04-19T03:06:13.100Z,1027.37
2019-04-19T03:08:04.123Z,1027.36
2019-04-19T03:09:17.558Z,1027.38
2019-04-19T03:10:56.734Z,1027.43
2019-04-19T03:13:39.887Z,1027.44
2019-04-19T03:16:31.024Z,1027.42
2019-04-19T03:19:39.636Z,1027.44
2019-04-19T03:22:22.705Z,1027.44
2019-04-19T03:25:10.671Z,1027.47
2019-04-19T03:27:46.994Z,1027.49
2019-04-19T03:30:05.239Z,1027.51
2019-04-19T03:34:11.097Z,1027.51
2019-04-19T03:37:30.421Z,1027.52
2019-04-19T03:40:38.617Z,1027.49
2019-04-19T03:44:03.175Z,1027.51
2019-04-19T03:47:14.851Z,1027.51
2019-04-19T03:50:36.909Z,1027.49
2019-04-19T03:54:05.525Z,1027.54
2019-04-19T03:57:15.206Z,1027.5
2019-04-19T03:59:16.203Z,1027.52
2019-04-19T04:00:28.065Z,1027.57
2019-04-19T04:01:42.857Z,1027.53
2019-04-19T04:03:16.104Z,1027.53
2019-04-19T04:04:59.342Z,1027.57
2019-04-19T04:06:27.278Z,1027.61
2019-04-19T04:07:56.809Z,1027.6
2019-04-19T04:09:33.032Z,1027.62
2019-04-19T04:11:11.604Z,1027.64
2019-04-19T04:12:47.295Z,1027.63
2019-04-19T04:15:13.809Z,1027.65
2019-04-19T04:17:26.757Z,1027.68
2019-04-19T04:18:38.551Z,1027.69
2019-04-19T04:19:50.378Z,1027.71
2019-04-19T04:21:02.623Z,1027.73
2019-04-19T04:22:22.547Z,1027.7
2019-04-19T04:24:04.612Z,1027.74
2019-04-19T04:26:08.193Z,1027.78
2019-04-19T04:28:23.393Z,1027.78
2019-04-19T04:30:36.703Z,1027.8
2019-04-19T04:33:00.248Z,1027.86
2019-04-19T04:35:30.179Z,1027.85
2019-04-19T04:38:20.574Z,1027.91
2019-04-19T04:39:53.455Z,1027.89
2019-04-19T04:41:10.744Z,1027.87
2019-04-19T04:42:43.199Z,1027.89
2019-04-19T04:45:32.176Z,1027.91
2019-04-19T04:48:57.907Z,1027.94
2019-04-19T04:52:18.747Z,1027.94
2019-04-19T04:53:53.279Z,1028
2019-04-19T04:55:05.130Z,1028
2019-04-19T04:56:17.166Z,1028.01
2019-04-19T04:58:05.756Z,1028.03
2019-04-19T04:59:49.017Z,1028.02
2019-04-19T05:01:14.306Z,1028
2019-04-19T05:03:42.804Z,1028.03
2019-04-19T05:06:21.494Z,1028.06
2019-04-19T05:09:22.413Z,1028.06
2019-04-19T05:12:36.246Z,1028.05
2019-04-19T05:15:52.722Z,1028.07
2019-04-19T05:19:40.238Z,1028.1
2019-04-19T05:22:29.006Z,1028.13
2019-04-19T05:25:35.617Z,1028.21
2019-04-19T05:29:05.948Z,1028.18
2019-04-19T05:31:00.318Z,1028.18
2019-04-19T05:33:00.877Z,1028.18
2019-04-19T05:35:47.418Z,1028.24
2019-04-19T05:38:47.440Z,1028.25
2019-04-19T05:41:55.999Z,1028.25
2019-04-19T05:45:25.965Z,1028.23
2019-04-19T05:48:35.914Z,1028.29
2019-04-19T05:51:33.568Z,1028.29
2019-04-19T05:54:11.635Z,1028.27
2019-04-19T05:55:28.201Z,1028.27
2019-04-19T05:56:44.774Z,1028.24
2019-04-19T05:59:10.619Z,1028.26
2019-04-19T06:01:46.529Z,1028.27
2019-04-19T06:04:16.689Z,1028.31
2019-04-19T06:07:45.186Z,1028.28
2019-04-19T06:09:35.282Z,1028.25
2019-04-19T06:10:52.422Z,1028.27
2019-04-19T06:12:25.052Z,1028.27
2019-04-19T06:14:16.688Z,1028.28
2019-04-19T06:17:36.426Z,1028.3
2019-04-19T06:20:25.856Z,1028.3
2019-04-19T06:23:23.460Z,1028.23
2019-04-19T06:30:19.937Z,1028.34
2019-04-19T06:33:41.287Z,1028.33
2019-04-19T06:36:27.173Z,1028.39
2019-04-19T06:37:39.096Z,1028.33
2019-04-19T06:38:52.846Z,1028.36
2019-04-19T06:40:14.195Z,1028.33
2019-04-19T06:41:57.768Z,1028.32
2019-04-19T06:43:55.234Z,1028.38
2019-04-19T06:46:42.084Z,1028.39
2019-04-19T06:48:53.982Z,1028.44
2019-04-19T06:50:35.277Z,1028.42
2019-04-19T06:52:24.722Z,1028.36
2019-04-19T06:53:52.030Z,1028.42
2019-04-19T06:55:31.451Z,1028.42
2019-04-19T06:57:27.039Z,1028.42
2019-04-19T06:59:41.779Z,1028.45
2019-04-19T07:02:05.435Z,1028.44
2019-04-19T07:03:17.751Z,1028.46
2019-04-19T07:04:31.798Z,1028.46
2019-04-19T07:07:01.805Z,1028.5
2019-04-19T07:11:00.076Z,1028.51
2019-04-19T07:14:05.402Z,1028.52
2019-04-19T07:16:07.215Z,1028.56
2019-04-19T07:19:08.561Z,1028.57
2019-04-19T07:21:58.906Z,1028.58
2019-04-19T07:24:56.427Z,1028.6
2019-04-19T07:28:12.210Z,1028.58
2019-04-19T07:29:45.041Z,1028.6
2019-04-19T07:31:11.055Z,1028.62
2019-04-19T07:32:36.010Z,1028.61
2019-04-19T07:34:36.943Z,1028.63
2019-04-19T07:37:45.993Z,1028.64
2019-04-19T07:41:05.501Z,1028.66
2019-04-19T07:44:17.125Z,1028.69
2019-04-19T07:46:25.058Z,1028.72
2019-04-19T07:48:45.137Z,1028.74
2019-04-19T07:50:04.758Z,1028.65
2019-04-19T07:52:06.645Z,1028.71
2019-04-19T07:55:41.311Z,1028.76
2019-04-19T08:01:14.835Z,1028.76
2019-04-19T08:05:46.112Z,1028.76
2019-04-19T08:28:53.764Z,1028.78
2019-04-19T08:31:05.877Z,1028.78
2019-04-19T08:32:23.909Z,1028.82
2019-04-19T08:33:36.025Z,1028.84
2019-04-19T08:34:55.479Z,1028.83
2019-04-19T08:36:28.536Z,1028.83
2019-04-19T08:38:23.111Z,1028.81
2019-04-19T08:40:42.224Z,1028.79
2019-04-19T08:43:50.608Z,1028.78
2019-04-19T08:46:03.239Z,1028.78
2019-04-19T08:47:22.822Z,1028.79
2019-04-19T08:49:21.193Z,1028.77
2019-04-19T08:50:56.361Z,1028.76
2019-04-19T08:52:14.817Z,1028.77
2019-04-19T08:53:59.111Z,1028.75
2019-04-19T08:57:10.464Z,1028.77
2019-04-19T08:58:54.226Z,1028.71
2019-04-19T09:02:15.222Z,1028.71
2019-04-19T09:05:14.325Z,1028.75
2019-04-19T09:09:18.430Z,1028.78
2019-04-19T09:12:48.041Z,1028.72
2019-04-19T09:16:16.591Z,1028.71
2019-04-19T09:20:14.829Z,1028.7
2019-04-19T09:23:08.958Z,1028.69
2019-04-19T09:25:23.989Z,1028.7
2019-04-19T09:28:04.323Z,1028.7
2019-04-19T09:31:31.717Z,1028.65
2019-04-19T09:33:31.367Z,1028.7
2019-04-19T09:35:11.015Z,1028.73
2019-04-19T09:36:43.159Z,1028.72
2019-04-19T09:39:21.795Z,1028.66
2019-04-19T09:41:37.118Z,1028.67
2019-04-19T09:43:51.989Z,1028.62
2019-04-19T09:45:45.280Z,1028.56
2019-04-19T09:46:58.067Z,1028.59
2019-04-19T09:48:31.452Z,1028.62
2019-04-19T09:51:24.200Z,1028.56
2019-04-19T09:54:51.077Z,1028.6
2019-04-19T09:57:59.686Z,1028.54
2019-04-19T10:00:23.430Z,1028.62
2019-04-19T10:01:46.037Z,1028.55
2019-04-19T10:03:31.406Z,1028.66
2019-04-19T10:05:07.506Z,1028.57
2019-04-19T10:06:17.881Z,1028.56
2019-04-19T10:07:29.570Z,1028.5
2019-04-19T10:08:42.083Z,1028.48
2019-04-19T10:10:02.527Z,1028.51
2019-04-19T10:11:23.086Z,1028.5
2019-04-19T10:12:33.705Z,1028.42
2019-04-19T10:13:46.628Z,1028.43
2019-04-19T10:14:59.825Z,1028.43
2019-04-19T10:16:10.426Z,1028.43
2019-04-19T10:17:22.727Z,1028.4
2019-04-19T10:18:45.834Z,1028.41
2019-04-19T10:20:15.238Z,1028.34
2019-04-19T10:21:32.168Z,1028.36
2019-04-19T10:22:50.697Z,1028.46
2019-04-19T10:24:12.631Z,1028.4
2019-04-19T10:25:31.659Z,1028.41
2019-04-19T10:27:07.356Z,1028.29
2019-04-19T10:28:22.188Z,1028.26
2019-04-19T10:29:39.093Z,1028.26
2019-04-19T10:30:56.767Z,1028.21
2019-04-19T10:32:08.535Z,1028.26
2019-04-19T10:33:29.590Z,1028.25
2019-04-19T10:35:07.275Z,1028.2
2019-04-19T10:36:18.322Z,1028.25
2019-04-19T10:37:29.505Z,1028.24
2019-04-19T10:38:40.994Z,1028.21
2019-04-19T10:39:57.375Z,1028.25
2019-04-19T10:41:11.502Z,1028.26
2019-04-19T10:42:23.092Z,1028.27
2019-04-19T10:43:37.018Z,1028.29
2019-04-19T10:45:14.121Z,1028.24
2019-04-19T10:46:26.888Z,1028.19
2019-04-19T10:47:37.868Z,1028.24
2019-04-19T10:49:01.188Z,1028.25
2019-04-19T10:50:55.393Z,1028.25
2019-04-19T10:52:10.832Z,1028.19
2019-04-19T10:53:22.208Z,1028.18
2019-04-19T10:54:33.200Z,1028.19
2019-04-19T10:55:44.416Z,1028.16
2019-04-19T10:56:54.833Z,1028.19
2019-04-19T10:58:09.463Z,1028.12
2019-04-19T10:59:20.533Z,1028.12
2019-04-19T11:00:31.396Z,1028.18
2019-04-19T11:01:43.582Z,1028.13
2019-04-19T11:02:56.943Z,1028.11
2019-04-19T11:04:09.331Z,1028.13
2019-04-19T11:05:21.174Z,1028.08
2019-04-19T11:06:33.443Z,1028.11
2019-04-19T11:07:43.615Z,1028.09
2019-04-19T11:08:56.385Z,1028.1
2019-04-19T11:10:07.540Z,1028.1
2019-04-19T11:11:21.341Z,1028.09
2019-04-19T11:12:32.581Z,1028.07
2019-04-19T11:13:45.710Z,1028.02
2019-04-19T11:14:57.894Z,1028.02
2019-04-19T11:16:10.038Z,1028.06
2019-04-19T11:17:21.889Z,1028.04
2019-04-19T11:18:34.997Z,1027.95
2019-04-19T11:20:00.301Z,1028.02
2019-04-19T11:21:54.476Z,1028.01
2019-04-19T11:23:06.158Z,1027.98
2019-04-19T11:24:16.410Z,1027.99
2019-04-19T11:25:30.295Z,1027.96
2019-04-19T11:26:45.444Z,1027.96
2019-04-19T11:27:57.939Z,1027.94
2019-04-19T11:29:09.833Z,1027.91
2019-04-19T11:30:24.083Z,1027.93
2019-04-19T11:31:36.047Z,1027.96
2019-04-19T11:32:47.330Z,1027.88
2019-04-19T11:33:59.474Z,1027.95
2019-04-19T11:35:11.755Z,1027.99
2019-04-19T11:36:23.808Z,1027.95
2019-04-19T11:37:34.960Z,1027.88
2019-04-19T11:38:45.512Z,1027.97
2019-04-19T11:39:57.300Z,1027.91
2019-04-19T11:41:09.535Z,1027.97
2019-04-19T11:42:21.734Z,1027.95
2019-04-19T11:43:33.844Z,1027.95
2019-04-19T11:44:46.104Z,1027.96
2019-04-19T11:45:58.037Z,1027.96
2019-04-19T11:47:11.069Z,1027.92
2019-04-19T11:48:24.505Z,1027.95
2019-04-19T11:49:41.787Z,1027.95
2019-04-19T11:50:55.969Z,1027.91
2019-04-19T11:52:08.146Z,1027.94
2019-04-19T11:53:22.840Z,1027.9
2019-04-19T11:54:33.101Z,1027.9
2019-04-19T11:55:44.804Z,1027.88
2019-04-19T11:57:00.133Z,1027.85
2019-04-19T11:58:17.119Z,1027.93
2019-04-19T11:59:40.595Z,1027.89
2019-04-19T12:01:05.699Z,1027.94
2019-04-19T12:02:17.886Z,1027.85
2019-04-19T12:03:34.198Z,1027.86
2019-04-19T12:04:50.586Z,1027.85
2019-04-19T12:06:14.289Z,1027.86
2019-04-19T12:07:28.028Z,1027.86
2019-04-19T12:08:42.017Z,1027.84
2019-04-19T12:09:56.931Z,1027.85
2019-04-19T12:11:08.997Z,1027.87
2019-04-19T12:12:21.171Z,1027.72
2019-04-19T12:13:36.291Z,1027.73
2019-04-19T12:14:50.545Z,1027.77
2019-04-19T12:16:03.111Z,1027.71
2019-04-19T12:17:13.581Z,1027.73
2019-04-19T12:18:26.284Z,1027.75
2019-04-19T12:19:48.741Z,1027.7
2019-04-19T12:21:13.636Z,1027.75
2019-04-19T12:22:25.641Z,1027.7
2019-04-19T12:23:36.927Z,1027.67
2019-04-19T12:24:50.853Z,1027.67
2019-04-19T12:26:04.190Z,1027.66
2019-04-19T12:27:15.726Z,1027.76
2019-04-19T12:28:27.775Z,1027.75
2019-04-19T12:29:42.986Z,1027.65
2019-04-19T12:31:03.092Z,1027.63
2019-04-19T12:32:15.022Z,1027.61
2019-04-19T12:33:26.994Z,1027.68
2019-04-19T12:34:38.288Z,1027.62
2019-04-19T12:35:49.538Z,1027.61
2019-04-19T12:37:01.793Z,1027.6
2019-04-19T12:38:14.433Z,1027.68
2019-04-19T12:39:27.228Z,1027.62
2019-04-19T12:40:40.136Z,1027.65
2019-04-19T12:41:51.952Z,1027.6
2019-04-19T12:43:04.463Z,1027.63
2019-04-19T12:44:17.952Z,1027.61
2019-04-19T12:45:30.234Z,1027.58
2019-04-19T12:46:41.208Z,1027.54
2019-04-19T12:47:53.409Z,1027.56
2019-04-19T12:49:04.515Z,1027.53
2019-04-19T12:50:16.260Z,1027.48
2019-04-19T12:51:28.093Z,1027.47
2019-04-19T12:52:40.275Z,1027.49
2019-04-19T12:53:52.595Z,1027.51
2019-04-19T12:55:06.357Z,1027.47
2019-04-19T12:56:18.395Z,1027.49
2019-04-19T12:57:30.233Z,1027.49
2019-04-19T12:58:42.269Z,1027.46
2019-04-19T12:59:58.022Z,1027.46
2019-04-19T13:01:08.531Z,1027.48
2019-04-19T13:02:22.010Z,1027.44
2019-04-19T13:03:32.457Z,1027.42
2019-04-19T13:04:46.140Z,1027.42
2019-04-19T13:05:57.535Z,1027.41
2019-04-19T13:07:10.990Z,1027.42
2019-04-19T13:08:21.086Z,1027.37
2019-04-19T13:09:33.291Z,1027.47
2019-04-19T13:10:44.984Z,1027.41
2019-04-19T13:11:57.411Z,1027.4
2019-04-19T13:13:09.851Z,1027.4
2019-04-19T13:14:21.957Z,1027.37
2019-04-19T13:15:34.309Z,1027.34
2019-04-19T13:16:48.395Z,1027.35
2019-04-19T13:18:00.821Z,1027.33
2019-04-19T13:19:12.635Z,1027.34
2019-04-19T13:20:29.385Z,1027.32
2019-04-19T13:21:47.701Z,1027.36
2019-04-19T13:22:59.311Z,1027.38
2019-04-19T13:24:11.308Z,1027.35
2019-04-19T13:25:23.590Z,1027.32
2019-04-19T13:26:35.837Z,1027.37
2019-04-19T13:27:54.147Z,1027.35
2019-04-19T13:29:11.805Z,1027.32
2019-04-19T13:30:31.339Z,1027.31
2019-04-19T13:32:05.960Z,1027.26
2019-04-19T13:33:18.594Z,1027.26
2019-04-19T13:34:31.504Z,1027.28
2019-04-19T13:35:43.386Z,1027.22
2019-04-19T13:36:53.886Z,1027.27
2019-04-19T13:38:07.333Z,1027.28
2019-04-19T13:39:19.253Z,1027.3
2019-04-19T13:40:30.469Z,1027.25
2019-04-19T13:41:41.270Z,1027.23
2019-04-19T13:42:57.307Z,1027.19
2019-04-19T13:44:11.876Z,1027.16
2019-04-19T13:45:29.371Z,1027.14
2019-04-19T13:46:48.567Z,1027.19
2019-04-19T13:47:59.033Z,1027.17
2019-04-19T13:49:11.063Z,1027.24
2019-04-19T13:50:29.223Z,1027.2
2019-04-19T13:51:52.562Z,1027.17
2019-04-19T13:53:04.631Z,1027.14
2019-04-19T13:54:16.513Z,1027.17
2019-04-19T13:55:26.538Z,1027.18
2019-04-19T13:56:39.185Z,1027.15
2019-04-19T13:57:54.049Z,1027.21
2019-04-19T13:59:05.662Z,1027.14
2019-04-19T14:00:18.097Z,1027.21
2019-04-19T14:01:30.336Z,1027.16
2019-04-19T14:02:43.340Z,1027.17
2019-04-19T14:03:55.332Z,1027.12
2019-04-19T14:05:07.267Z,1027.11
2019-04-19T14:06:18.531Z,1027.07
2019-04-19T14:07:32.792Z,1027.1
2019-04-19T14:08:45.167Z,1027.06
2019-04-19T14:09:59.085Z,1027.1
2019-04-19T14:11:11.045Z,1027.1
2019-04-19T14:12:22.987Z,1027.11
2019-04-19T14:13:35.047Z,1027.09
2019-04-19T14:14:57.627Z,1027.03
2019-04-19T14:16:09.286Z,1027.04
2019-04-19T14:17:19.984Z,1026.99
2019-04-19T14:18:30.831Z,1026.97
2019-04-19T14:19:44.612Z,1026.93
2019-04-19T14:20:56.183Z,1026.98
2019-04-19T14:22:06.966Z,1026.96
2019-04-19T14:23:19.680Z,1026.98
2019-04-19T14:24:31.847Z,1026.99
2019-04-19T14:25:43.618Z,1026.94
2019-04-19T14:26:57.787Z,1026.97
2019-04-19T14:28:13.496Z,1026.88
2019-04-19T14:29:23.772Z,1026.87
2019-04-19T14:30:35.889Z,1026.86
2019-04-19T14:31:48.555Z,1026.81
2019-04-19T14:33:00.062Z,1026.75
2019-04-19T14:34:11.302Z,1026.79
2019-04-19T14:35:23.801Z,1026.81
2019-04-19T14:36:36.136Z,1026.84
2019-04-19T14:37:48.118Z,1026.81
2019-04-19T14:39:00.354Z,1026.78
2019-04-19T14:40:11.708Z,1026.79
2019-04-19T14:41:25.377Z,1026.8
2019-04-19T14:42:36.800Z,1026.72
2019-04-19T14:43:50.345Z,1026.73
2019-04-19T14:45:02.094Z,1026.73
2019-04-19T14:46:14.652Z,1026.73
2019-04-19T14:47:26.643Z,1026.7
2019-04-19T14:48:40.400Z,1026.71
2019-04-19T14:49:56.789Z,1026.62
2019-04-19T14:51:15.017Z,1026.66
2019-04-19T14:52:44.394Z,1026.72
2019-04-19T14:53:58.020Z,1026.67
2019-04-19T14:55:10.069Z,1026.65
2019-04-19T14:56:21.760Z,1026.64
2019-04-19T14:57:34.506Z,1026.68
2019-04-19T14:58:47.193Z,1026.64
2019-04-19T14:59:56.880Z,1026.61
2019-04-19T15:01:08.815Z,1026.62
2019-04-19T15:02:20.744Z,1026.63
2019-04-19T15:03:32.685Z,1026.6
2019-04-19T15:04:44.701Z,1026.59
2019-04-19T15:05:57.495Z,1026.59
2019-04-19T15:07:09.557Z,1026.55
2019-04-19T15:08:21.253Z,1026.58
2019-04-19T15:09:37.588Z,1026.56
2019-04-19T15:10:49.348Z,1026.54
2019-04-19T15:12:00.788Z,1026.52
2019-04-19T15:13:14.628Z,1026.54
2019-04-19T15:14:26.251Z,1026.53
2019-04-19T15:15:37.768Z,1026.5
2019-04-19T15:16:50.383Z,1026.56
2019-04-19T15:18:02.100Z,1026.53
2019-04-19T15:19:14.435Z,1026.52
2019-04-19T15:20:24.384Z,1026.51
2019-04-19T15:21:36.515Z,1026.49
2019-04-19T15:22:47.342Z,1026.49
2019-04-19T15:23:58.938Z,1026.49
2019-04-19T15:25:12.768Z,1026.47
2019-04-19T15:26:26.775Z,1026.46
2019-04-19T15:27:37.392Z,1026.43
2019-04-19T15:28:51.246Z,1026.44
2019-04-19T15:30:01.726Z,1026.44
2019-04-19T15:31:14.260Z,1026.42
2019-04-19T15:32:26.750Z,1026.43
2019-04-19T15:33:40.404Z,1026.43
2019-04-19T15:34:53.716Z,1026.37
2019-04-19T15:36:04.586Z,1026.42
2019-04-19T15:37:16.452Z,1026.38
2019-04-19T15:38:28.481Z,1026.35
2019-04-19T15:39:42.016Z,1026.39
2019-04-19T15:40:52.388Z,1026.38
2019-04-19T15:42:04.745Z,1026.3
2019-04-19T15:43:17.138Z,1026.36
2019-04-19T15:44:28.694Z,1026.35
2019-04-19T15:45:41.206Z,1026.37
2019-04-19T15:46:53.693Z,1026.35
2019-04-19T15:48:08.837Z,1026.33
2019-04-19T15:49:51.635Z,1026.26
2019-04-19T15:51:13.238Z,1026.32
2019-04-19T15:52:46.648Z,1026.31
2019-04-19T15:54:00.389Z,1026.3
2019-04-19T15:55:12.154Z,1026.25
2019-04-19T15:56:24.467Z,1026.23
2019-04-19T15:57:36.623Z,1026.23
2019-04-19T15:58:47.401Z,1026.23
2019-04-19T16:00:00.065Z,1026.2
2019-04-19T16:01:10.577Z,1026.21
2019-04-19T16:02:22.654Z,1026.22
2019-04-19T16:03:35.934Z,1026.21
2019-04-19T16:04:48.007Z,1026.25
2019-04-19T16:05:58.334Z,1026.2
2019-04-19T16:07:10.656Z,1026.26
2019-04-19T16:08:22.676Z,1026.24
2019-04-19T16:09:35.600Z,1026.29
2019-04-19T16:10:48.621Z,1026.26
2019-04-19T16:11:59.011Z,1026.27
2019-04-19T16:13:12.010Z,1026.28
2019-04-19T16:14:24.134Z,1026.3
2019-04-19T16:15:36.181Z,1026.3
2019-04-19T16:16:49.049Z,1026.28
2019-04-19T16:18:01.998Z,1026.27
2019-04-19T16:19:14.448Z,1026.27
2019-04-19T16:20:27.195Z,1026.26
2019-04-19T16:21:43.265Z,1026.27
2019-04-19T16:23:10.112Z,1026.24
2019-04-19T16:24:21.498Z,1026.29
2019-04-19T16:25:33.983Z,1026.25
2019-04-19T16:26:49.005Z,1026.24
2019-04-19T16:28:01.270Z,1026.25
2019-04-19T16:29:24.120Z,1026.25
2019-04-19T16:31:00.410Z,1026.22
2019-04-19T16:32:12.989Z,1026.2
2019-04-19T16:33:25.661Z,1026.26
2019-04-19T16:34:36.673Z,1026.26
2019-04-19T16:35:48.730Z,1026.24
2019-04-19T16:37:00.512Z,1026.24
2019-04-19T16:38:11.933Z,1026.23
2019-04-19T16:39:23.452Z,1026.25
2019-04-19T16:40:38.592Z,1026.24
2019-04-19T16:41:49.225Z,1026.22
2019-04-19T16:42:59.398Z,1026.22
2019-04-19T16:44:11.736Z,1026.25
2019-04-19T16:45:24.160Z,1026.17
2019-04-19T16:46:37.161Z,1026.16
2019-04-19T16:47:49.403Z,1026.22
2019-04-19T16:49:00.596Z,1026.17
2019-04-19T16:50:14.182Z,1026.2
2019-04-19T16:51:35.106Z,1026.21
2019-04-19T16:53:05.073Z,1026.17
2019-04-19T16:54:18.592Z,1026.22
2019-04-19T16:55:29.620Z,1026.25
2019-04-19T16:56:42.110Z,1026.27
2019-04-19T16:58:12.628Z,1026.24
2019-04-19T16:59:25.888Z,1026.28
2019-04-19T17:00:38.637Z,1026.24
2019-04-19T17:01:50.694Z,1026.29
2019-04-19T17:03:01.366Z,1026.25
2019-04-19T17:04:13.482Z,1026.25
2019-04-19T17:05:28.786Z,1026.27
2019-04-19T17:06:40.474Z,1026.27
2019-04-19T17:07:53.201Z,1026.26
2019-04-19T17:09:04.707Z,1026.27
2019-04-19T17:10:18.750Z,1026.27
2019-04-19T17:11:32.947Z,1026.26
2019-04-19T17:12:45.156Z,1026.27
2019-04-19T17:13:56.650Z,1026.26
2019-04-19T17:15:08.672Z,1026.24
2019-04-19T17:16:20.138Z,1026.22
2019-04-19T17:17:36.344Z,1026.26
2019-04-19T17:18:48.507Z,1026.22
2019-04-19T17:20:00.501Z,1026.26
2019-04-19T17:21:11.490Z,1026.22
2019-04-19T17:22:25.340Z,1026.25
2019-04-19T17:23:37.688Z,1026.28
2019-04-19T17:24:49.398Z,1026.22
2019-04-19T17:26:01.499Z,1026.27
2019-04-19T17:27:13.532Z,1026.26
2019-04-19T17:28:37.124Z,1026.3
2019-04-19T17:29:49.378Z,1026.27
2019-04-19T17:31:00.415Z,1026.31
2019-04-19T17:32:12.449Z,1026.31
2019-04-19T17:33:24.541Z,1026.3
2019-04-19T17:34:36.461Z,1026.32
2019-04-19T17:35:48.490Z,1026.36
2019-04-19T17:37:00.456Z,1026.35
2019-04-19T17:38:24.441Z,1026.34
2019-04-19T17:39:58.793Z,1026.37
2019-04-19T17:41:10.247Z,1026.31
2019-04-19T17:42:22.319Z,1026.34
2019-04-19T17:43:33.726Z,1026.33
2019-04-19T17:44:47.300Z,1026.31
2019-04-19T17:45:58.509Z,1026.34
2019-04-19T17:47:11.771Z,1026.34
2019-04-19T17:48:44.345Z,1026.36
2019-04-19T17:49:56.270Z,1026.38
2019-04-19T17:51:07.713Z,1026.4
2019-04-19T17:52:26.236Z,1026.41
2019-04-19T17:53:47.533Z,1026.49
2019-04-19T17:55:12.618Z,1026.47
2019-04-19T17:56:55.703Z,1026.49
2019-04-19T17:58:07.976Z,1026.54
2019-04-19T17:59:22.865Z,1026.57
2019-04-19T18:00:34.787Z,1026.47
2019-04-19T18:01:46.571Z,1026.47
2019-04-19T18:02:57.473Z,1026.49
2019-04-19T18:04:09.036Z,1026.51
2019-04-19T18:05:22.586Z,1026.5
2019-04-19T18:06:36.372Z,1026.56
2019-04-19T18:08:04.255Z,1026.55
2019-04-19T18:09:33.219Z,1026.55
2019-04-19T18:11:09.666Z,1026.6
2019-04-19T18:12:39.130Z,1026.55
2019-04-19T18:13:50.984Z,1026.56
2019-04-19T18:15:03.606Z,1026.57
2019-04-19T18:16:14.658Z,1026.54
2019-04-19T18:17:28.518Z,1026.55
2019-04-19T18:18:44.486Z,1026.59
2019-04-19T18:20:08.599Z,1026.62
2019-04-19T18:21:35.764Z,1026.69
2019-04-19T18:23:01.521Z,1026.65
2019-04-19T18:25:05.491Z,1026.7
2019-04-19T18:26:26.165Z,1026.71
2019-04-19T18:27:49.031Z,1026.76
2019-04-19T18:29:21.708Z,1026.76
2019-04-19T18:30:42.923Z,1026.74
2019-04-19T18:32:10.092Z,1026.76
2019-04-19T18:33:22.188Z,1026.76
2019-04-19T18:34:41.658Z,1026.73
2019-04-19T18:35:59.754Z,1026.75
2019-04-19T18:37:34.414Z,1026.77
2019-04-19T18:38:52.107Z,1026.75
2019-04-19T18:40:06.157Z,1026.71
2019-04-19T18:41:18.854Z,1026.74
2019-04-19T18:42:31.457Z,1026.77
2019-04-19T18:44:49.126Z,1026.8
2019-04-19T18:46:26.731Z,1026.78
2019-04-19T18:47:39.215Z,1026.78
2019-04-19T18:48:51.687Z,1026.81
2019-04-19T18:50:03.974Z,1026.82
2019-04-19T18:51:20.206Z,1026.82
2019-04-19T18:53:05.894Z,1026.84
2019-04-19T18:55:10.530Z,1026.85
2019-04-19T18:56:55.930Z,1026.85
2019-04-19T18:58:21.032Z,1026.88
2019-04-19T18:59:49.639Z,1026.86
2019-04-19T19:01:11.970Z,1026.83
2019-04-19T19:02:52.804Z,1026.88
2019-04-19T19:04:17.629Z,1026.9
2019-04-19T19:05:44.019Z,1026.85
2019-04-19T19:07:18.959Z,1026.86
2019-04-19T19:08:45.661Z,1026.88
2019-04-19T19:10:34.104Z,1026.87
2019-04-19T19:12:13.042Z,1026.9
2019-04-19T19:13:30.616Z,1026.91
2019-04-19T19:14:55.400Z,1026.93
2019-04-19T19:16:18.288Z,1026.94
2019-04-19T19:17:48.828Z,1026.97
2019-04-19T19:19:16.278Z,1026.98
2019-04-19T19:20:49.404Z,1027
2019-04-19T19:22:22.898Z,1026.99
2019-04-19T19:25:02.934Z,1026.96
2019-04-19T19:27:17.375Z,1026.98
2019-04-19T19:28:39.939Z,1026.97
2019-04-19T19:29:52.459Z,1026.97
2019-04-19T19:31:02.960Z,1026.96
2019-04-19T19:32:17.297Z,1026.99
2019-04-19T19:33:37.659Z,1026.99
2019-04-19T19:35:01.875Z,1026.94
2019-04-19T19:36:37.667Z,1027.01
2019-04-19T19:38:01.044Z,1026.98
2019-04-19T19:42:23.114Z,1027
2019-04-19T19:45:17.053Z,1027.05
2019-04-19T19:48:28.245Z,1027.07
2019-04-19T19:52:21.904Z,1027.04
2019-04-19T19:59:11.803Z,1027
2019-04-19T20:01:30.036Z,1027.01
2019-04-19T20:03:52.398Z,1027.01
2019-04-19T20:05:05.246Z,1027
2019-04-19T20:06:48.867Z,1027
2019-04-19T20:08:33.556Z,1026.99
2019-04-19T20:10:05.373Z,1027.01
2019-04-19T20:11:41.604Z,1027.02
2019-04-19T20:13:03.370Z,1027
2019-04-19T20:14:36.820Z,1027
2019-04-19T20:16:02.890Z,1026.99
2019-04-19T20:17:37.278Z,1027
2019-04-19T20:19:11.842Z,1026.98
2019-04-19T20:20:34.085Z,1026.98
2019-04-19T20:21:57.305Z,1026.99
2019-04-19T20:23:26.738Z,1027.02
2019-04-19T20:25:41.531Z,1027.04